createdAt,value
2017-11-11T00:01:22.617Z,81.00
2017-11-11T00:03:50.152Z,81.30
2017-11-11T00:06:17.701Z,80.40
2017-11-11T00:08:45.248Z,80.90
2017-11-11T00:11:12.788Z,80.90
2017-11-11T00:13:40.337Z,81.40
2017-11-11T00:16:08.021Z,81.80
2017-11-11T00:18:35.821Z,82.70
2017-11-11T00:21:04.224Z,82.20
2017-11-11T00:23:31.787Z,82.00
2017-11-11T00:25:59.369Z,81.40
2017-11-11T00:28:27.816Z,83.30
2017-11-11T00:30:55.377Z,82.80
2017-11-11T00:33:23.691Z,82.80
2017-11-11T00:35:51.252Z,82.40
2017-11-11T00:38:18.785Z,82.10
2017-11-11T00:40:46.315Z,82.20
2017-11-11T00:43:13.897Z,82.10
2017-11-11T00:45:41.435Z,82.20
2017-11-11T00:48:09.032Z,81.90
2017-11-11T00:50:36.588Z,82.50
2017-11-11T00:53:04.114Z,81.70
2017-11-11T00:55:31.649Z,83.00
2017-11-11T00:57:59.205Z,82.20
2017-11-11T01:00:26.728Z,82.20
2017-11-11T01:02:55.112Z,83.50
2017-11-11T01:05:22.783Z,82.80
2017-11-11T01:07:50.369Z,83.00
2017-11-11T01:10:17.947Z,84.00
2017-11-11T01:12:45.512Z,83.20
2017-11-11T01:15:13.058Z,82.80
2017-11-11T01:17:40.600Z,82.50
2017-11-11T01:20:08.181Z,81.90
2017-11-11T01:22:35.708Z,82.50
2017-11-11T01:25:03.231Z,82.70
2017-11-11T01:27:30.791Z,83.30
2017-11-11T01:29:58.334Z,82.50
2017-11-11T01:32:25.877Z,82.00
2017-11-11T01:34:53.437Z,82.00
2017-11-11T01:37:20.966Z,82.20
2017-11-11T01:39:48.516Z,83.70
2017-11-11T01:42:16.071Z,83.40
2017-11-11T01:44:45.688Z,83.80
2017-11-11T01:47:13.417Z,82.60
2017-11-11T01:49:40.959Z,82.60
2017-11-11T01:52:08.486Z,82.90
2017-11-11T01:54:36.017Z,82.80
2017-11-11T01:57:03.576Z,82.30
2017-11-11T01:59:31.129Z,83.00
2017-11-11T02:01:58.675Z,82.80
2017-11-11T02:04:26.253Z,82.20
2017-11-11T02:06:54.565Z,83.60
2017-11-11T02:09:22.091Z,82.70
2017-11-11T02:11:50.139Z,82.90
2017-11-11T02:14:18.626Z,82.40
2017-11-11T02:16:46.576Z,82.40
2017-11-11T02:19:14.526Z,82.30
2017-11-11T02:21:43.011Z,82.30
2017-11-11T02:24:10.918Z,82.60
2017-11-11T02:26:38.863Z,82.50
2017-11-11T02:29:06.767Z,82.30
2017-11-11T02:31:34.470Z,82.10
2017-11-11T02:34:02.794Z,83.00
2017-11-11T02:36:30.326Z,82.00
2017-11-11T02:38:57.901Z,81.80
2017-11-11T02:41:25.510Z,82.00
2017-11-11T02:43:53.053Z,82.70
2017-11-11T02:46:20.601Z,82.80
2017-11-11T02:48:48.157Z,83.30
2017-11-11T02:51:15.713Z,82.60
2017-11-11T02:53:43.274Z,82.10
2017-11-11T02:56:10.845Z,82.90
2017-11-11T02:58:39.150Z,83.30
2017-11-11T03:01:06.703Z,82.50
2017-11-11T03:03:34.271Z,82.00
2017-11-11T03:06:02.055Z,82.60
2017-11-11T03:08:30.342Z,83.10
2017-11-11T03:10:57.896Z,82.60
2017-11-11T03:13:25.456Z,82.50
2017-11-11T03:15:52.980Z,82.50
2017-11-11T03:18:20.642Z,83.30
2017-11-11T03:20:48.311Z,83.20
2017-11-11T03:23:15.898Z,83.10
2017-11-11T03:25:43.564Z,82.50
2017-11-11T03:28:11.209Z,82.30
2017-11-11T03:30:38.807Z,82.00
2017-11-11T03:33:07.212Z,82.70
2017-11-11T03:35:34.835Z,82.90
2017-11-11T03:38:02.499Z,83.20
2017-11-11T03:40:30.133Z,82.20
2017-11-11T03:42:57.754Z,82.50
2017-11-11T03:45:26.142Z,83.10
2017-11-11T03:47:53.821Z,82.30
2017-11-11T03:50:21.459Z,82.30
2017-11-11T03:52:49.060Z,82.20
2017-11-11T03:55:16.812Z,82.20
2017-11-11T03:57:44.351Z,82.70
2017-11-11T04:00:11.872Z,82.40
2017-11-11T04:02:39.440Z,83.40
2017-11-11T04:05:06.961Z,82.80
2017-11-11T04:07:34.500Z,82.50
2017-11-11T04:10:02.072Z,83.20
2017-11-11T04:12:29.604Z,82.70
2017-11-11T04:14:57.138Z,83.10
2017-11-11T04:17:24.700Z,82.80
2017-11-11T04:19:52.740Z,82.60
2017-11-11T04:22:20.396Z,82.60
2017-11-11T04:24:48.021Z,83.50
2017-11-11T04:27:15.693Z,83.20
2017-11-11T04:29:43.253Z,83.40
2017-11-11T04:32:11.649Z,83.60
2017-11-11T04:34:39.278Z,82.70
2017-11-11T04:37:06.913Z,82.40
2017-11-11T04:39:34.644Z,82.00
2017-11-11T04:42:02.288Z,82.50
2017-11-11T04:44:29.918Z,83.40
2017-11-11T04:46:57.538Z,82.30
2017-11-11T04:49:25.152Z,82.20
2017-11-11T04:51:52.739Z,82.30
2017-11-11T04:54:20.349Z,82.70
2017-11-11T04:56:47.934Z,83.30
2017-11-11T04:59:15.514Z,83.20
2017-11-11T05:01:43.088Z,83.50
2017-11-11T05:04:10.609Z,84.00
2017-11-11T05:06:38.137Z,84.60
2017-11-11T05:09:05.692Z,83.40
2017-11-11T05:11:33.443Z,82.50
2017-11-11T05:14:00.961Z,83.30
2017-11-11T05:16:28.520Z,83.30
2017-11-11T05:18:56.057Z,83.50
2017-11-11T05:21:23.599Z,83.20
2017-11-11T05:23:51.152Z,83.90
2017-11-11T05:26:18.905Z,84.10
2017-11-11T05:28:46.958Z,83.30
2017-11-11T05:31:14.507Z,84.10
2017-11-11T05:33:42.033Z,84.60
2017-11-11T05:36:09.571Z,83.90
2017-11-11T05:38:37.149Z,84.80
2017-11-11T05:41:04.688Z,84.40
2017-11-11T05:43:32.215Z,84.80
2017-11-11T05:46:03.332Z,84.80
2017-11-11T05:48:30.860Z,85.50
2017-11-11T05:50:58.389Z,84.60
2017-11-11T05:53:26.702Z,85.50
2017-11-11T05:55:54.232Z,85.20
2017-11-11T05:58:21.760Z,84.50
2017-11-11T06:00:49.318Z,85.20
2017-11-11T06:03:16.877Z,84.80
2017-11-11T06:05:44.397Z,85.40
2017-11-11T06:08:11.961Z,85.30
2017-11-11T06:10:39.733Z,85.20
2017-11-11T06:13:07.302Z,84.90
2017-11-11T06:15:35.688Z,86.20
2017-11-11T06:18:03.216Z,85.20
2017-11-11T06:20:31.513Z,85.90
2017-11-11T06:22:59.077Z,85.40
2017-11-11T06:25:27.089Z,85.80
2017-11-11T06:27:54.615Z,85.50
2017-11-11T06:30:22.932Z,85.80
2017-11-11T06:32:51.322Z,85.30
2017-11-11T06:35:19.735Z,85.70
2017-11-11T06:37:47.437Z,84.70
2017-11-11T06:40:15.023Z,84.40
2017-11-11T06:42:42.583Z,84.60
2017-11-11T06:45:10.135Z,84.20
2017-11-11T06:47:37.702Z,84.60
2017-11-11T06:50:05.223Z,84.30
2017-11-11T06:52:32.776Z,84.60
2017-11-11T06:55:00.321Z,84.80
2017-11-11T06:57:28.275Z,84.50
2017-11-11T06:59:55.902Z,83.90
2017-11-11T07:02:23.544Z,84.20
2017-11-11T07:04:51.064Z,83.40
2017-11-11T07:07:19.838Z,84.60
2017-11-11T07:09:47.685Z,83.50
2017-11-11T07:12:15.259Z,82.90
2017-11-11T07:14:42.826Z,83.10
2017-11-11T07:17:10.987Z,83.50
2017-11-11T07:19:38.633Z,83.40
2017-11-11T07:22:06.449Z,84.40
2017-11-11T07:24:36.496Z,84.20
2017-11-11T07:27:06.374Z,84.30
2017-11-11T07:29:36.736Z,84.20
2017-11-11T07:32:06.470Z,84.30
2017-11-11T07:34:34.062Z,84.30
2017-11-11T07:37:01.590Z,84.30
2017-11-11T07:39:29.248Z,84.60
2017-11-11T07:41:57.642Z,85.30
2017-11-11T07:44:25.274Z,84.20
2017-11-11T07:46:53.672Z,85.30
2017-11-11T07:49:21.299Z,84.20
2017-11-11T07:51:48.887Z,83.80
2017-11-11T07:54:16.452Z,84.20
2017-11-11T07:56:43.980Z,84.60
2017-11-11T07:59:12.444Z,84.10
2017-11-11T08:01:40.088Z,84.20
2017-11-11T08:04:07.740Z,83.00
2017-11-11T08:06:35.362Z,82.60
2017-11-11T08:09:03.044Z,82.80
2017-11-11T08:11:31.385Z,83.20
2017-11-11T08:13:58.943Z,83.20
2017-11-11T08:16:29.701Z,84.30
2017-11-11T08:19:00.815Z,84.70
2017-11-11T08:21:28.567Z,83.90
2017-11-11T08:23:56.278Z,84.00
2017-11-11T08:26:23.960Z,84.10
2017-11-11T08:28:51.564Z,84.20
2017-11-11T08:31:19.216Z,85.10
2017-11-11T08:33:46.753Z,84.90
2017-11-11T08:36:21.338Z,85.30
2017-11-11T08:38:49.068Z,85.30
2017-11-11T08:41:17.005Z,85.70
2017-11-11T08:43:45.034Z,86.00
2017-11-11T08:46:12.673Z,86.10
2017-11-11T08:48:40.719Z,86.10
2017-11-11T08:51:09.433Z,88.00
2017-11-11T08:53:37.363Z,87.00
2017-11-11T08:56:06.249Z,87.40
2017-11-11T08:58:33.903Z,87.90
2017-11-11T09:01:02.137Z,88.10
2017-11-11T09:03:29.815Z,88.40
2017-11-11T09:05:57.774Z,88.40
2017-11-11T09:08:25.496Z,88.60
2017-11-11T09:10:53.513Z,89.00
2017-11-11T09:13:21.238Z,89.00
2017-11-11T09:15:53.244Z,89.40
2017-11-11T09:18:21.642Z,88.70
2017-11-11T09:20:49.812Z,88.90
2017-11-11T09:23:18.135Z,88.60
2017-11-11T09:25:46.850Z,88.40
2017-11-11T09:28:14.540Z,89.20
2017-11-11T09:30:43.640Z,89.00
2017-11-11T09:33:14.009Z,89.40
2017-11-11T09:35:45.904Z,89.70
2017-11-11T09:38:15.824Z,90.00
2017-11-11T09:40:45.196Z,90.10
2017-11-11T09:43:13.251Z,90.20
2017-11-11T09:45:42.337Z,90.20
2017-11-11T09:48:11.244Z,90.10
2017-11-11T09:50:39.044Z,90.30
2017-11-11T09:53:06.630Z,90.20
2017-11-11T09:55:34.475Z,90.10
2017-11-11T09:58:02.003Z,90.30
2017-11-11T10:00:29.609Z,90.50
2017-11-11T10:02:57.917Z,91.40
2017-11-11T10:05:25.471Z,90.80
2017-11-11T10:07:53.054Z,91.20
2017-11-11T10:10:28.067Z,91.20
2017-11-11T10:12:56.288Z,91.60
2017-11-11T10:15:23.937Z,91.80
2017-11-11T10:17:51.562Z,91.10
2017-11-11T10:20:21.434Z,91.10
2017-11-11T10:22:49.996Z,91.70
2017-11-11T10:25:18.348Z,91.80
2017-11-11T10:27:46.711Z,91.80
2017-11-11T10:30:15.043Z,92.20
2017-11-11T10:32:43.488Z,91.60
2017-11-11T10:35:11.483Z,91.50
2017-11-11T10:37:39.144Z,91.60
2017-11-11T10:40:07.615Z,92.20
2017-11-11T10:42:36.252Z,92.10
2017-11-11T10:45:04.659Z,92.10
2017-11-11T10:47:32.436Z,91.90
2017-11-11T10:49:59.999Z,91.80
2017-11-11T10:52:27.547Z,91.70
2017-11-11T10:54:55.875Z,91.90
2017-11-11T10:57:23.937Z,91.60
2017-11-11T10:59:52.542Z,91.60
2017-11-11T11:02:20.603Z,91.50
2017-11-11T11:04:50.302Z,91.40
2017-11-11T11:07:21.290Z,91.20
2017-11-11T11:09:50.884Z,91.20
2017-11-11T11:12:19.691Z,90.80
2017-11-11T11:14:48.573Z,90.40
2017-11-11T11:17:16.668Z,90.20
2017-11-11T11:19:44.697Z,90.30
2017-11-11T11:22:12.673Z,90.30
2017-11-11T11:24:41.218Z,91.20
2017-11-11T11:27:08.750Z,90.80
2017-11-11T11:29:36.602Z,91.00
2017-11-11T11:32:04.741Z,91.20
2017-11-11T11:34:32.807Z,91.30
2017-11-11T11:37:00.886Z,91.10
2017-11-11T11:39:28.522Z,91.70
2017-11-11T11:41:56.059Z,91.10
2017-11-11T11:44:23.870Z,91.10
2017-11-11T11:46:51.460Z,91.30
2017-11-11T11:49:18.985Z,91.40
2017-11-11T11:51:46.510Z,91.20
2017-11-11T11:54:14.303Z,91.20
2017-11-11T11:56:41.818Z,91.30
2017-11-11T11:59:09.354Z,91.40
2017-11-11T12:01:37.155Z,91.70
2017-11-11T12:04:04.688Z,91.90
2017-11-11T12:06:32.273Z,91.70
2017-11-11T12:08:59.872Z,91.70
2017-11-11T12:11:27.500Z,91.80
2017-11-11T12:13:55.124Z,91.70
2017-11-11T12:16:22.677Z,92.00
2017-11-11T12:18:50.211Z,91.90
2017-11-11T12:21:17.973Z,91.80
2017-11-11T12:23:45.521Z,92.00
2017-11-11T12:26:13.043Z,92.00
2017-11-11T12:28:40.684Z,92.10
2017-11-11T12:31:08.293Z,92.00
2017-11-11T12:33:36.681Z,92.50
2017-11-11T12:36:04.248Z,92.00
2017-11-11T12:38:31.780Z,92.10
2017-11-11T12:41:00.088Z,92.90
2017-11-11T12:43:27.627Z,92.60
2017-11-11T12:45:55.253Z,92.40
2017-11-11T12:48:23.041Z,92.40
2017-11-11T12:50:50.641Z,92.30
2017-11-11T12:53:18.201Z,92.40
2017-11-11T12:55:45.744Z,92.30
2017-11-11T12:58:13.289Z,92.80
2017-11-11T13:00:41.592Z,93.00
2017-11-11T13:03:09.280Z,92.60
2017-11-11T13:05:36.915Z,92.60
2017-11-11T13:08:05.201Z,93.00
2017-11-11T13:10:32.758Z,92.60
2017-11-11T13:13:00.290Z,92.80
2017-11-11T13:15:27.855Z,93.00
2017-11-11T13:17:55.376Z,93.10
2017-11-11T13:20:22.901Z,92.70
2017-11-11T13:22:50.534Z,92.90
2017-11-11T13:25:18.491Z,92.80
2017-11-11T13:27:46.379Z,92.90
2017-11-11T13:30:14.387Z,93.00
2017-11-11T13:32:43.341Z,93.60
2017-11-11T13:35:11.144Z,93.10
2017-11-11T13:37:41.101Z,93.30
2017-11-11T13:40:09.313Z,93.10
2017-11-11T13:42:37.459Z,93.30
2017-11-11T13:45:05.106Z,93.40
2017-11-11T13:47:32.734Z,93.50
2017-11-11T13:50:00.467Z,93.60
2017-11-11T13:52:28.068Z,93.80
2017-11-11T13:54:56.872Z,93.70
2017-11-11T13:57:24.705Z,93.90
2017-11-11T13:59:52.636Z,93.50
2017-11-11T14:02:20.633Z,93.50
2017-11-11T14:04:49.371Z,94.00
2017-11-11T14:07:17.383Z,94.00
2017-11-11T14:09:45.292Z,93.30
2017-11-11T14:12:13.672Z,93.50
2017-11-11T14:14:41.699Z,93.70
2017-11-11T14:17:09.929Z,93.70
2017-11-11T14:19:37.846Z,93.90
2017-11-11T14:22:05.903Z,94.20
2017-11-11T14:24:35.666Z,94.20
2017-11-11T14:27:03.758Z,93.80
2017-11-11T14:29:31.858Z,94.00
2017-11-11T14:32:00.232Z,94.60
2017-11-11T14:34:28.014Z,94.30
2017-11-11T14:36:55.928Z,94.10
2017-11-11T14:39:23.816Z,94.40
2017-11-11T14:41:51.587Z,94.50
2017-11-11T14:44:19.668Z,94.40
2017-11-11T14:46:47.678Z,94.40
2017-11-11T14:49:15.724Z,94.50
2017-11-11T14:51:43.487Z,94.70
2017-11-11T14:54:11.436Z,94.80
2017-11-11T14:56:39.924Z,95.00
2017-11-11T14:59:08.123Z,94.80
2017-11-11T15:01:36.851Z,95.70
2017-11-11T15:04:04.584Z,95.00
2017-11-11T15:06:32.717Z,95.20
2017-11-11T15:09:00.691Z,95.50
2017-11-11T15:11:28.942Z,95.30
2017-11-11T15:13:57.446Z,95.40
2017-11-11T15:16:25.009Z,95.90
2017-11-11T15:18:53.134Z,95.50
2017-11-11T15:21:22.037Z,95.90
2017-11-11T15:23:50.816Z,95.70
2017-11-11T15:26:22.955Z,95.70
2017-11-11T15:28:51.282Z,95.60
2017-11-11T15:31:19.521Z,95.80
2017-11-11T15:33:47.505Z,95.90
2017-11-11T15:36:15.587Z,95.90
2017-11-11T15:38:44.537Z,96.60
2017-11-11T15:41:12.842Z,96.00
2017-11-11T15:43:41.277Z,96.10
2017-11-11T15:46:09.286Z,96.70
2017-11-11T15:48:38.431Z,96.10
2017-11-11T15:51:09.143Z,96.40
2017-11-11T15:53:40.304Z,96.30
2017-11-11T15:56:11.475Z,96.90
2017-11-11T15:58:41.164Z,96.70
2017-11-11T16:01:09.794Z,97.00
2017-11-11T16:03:38.847Z,96.50
2017-11-11T16:06:07.116Z,96.50
2017-11-11T16:08:36.302Z,97.10
2017-11-11T16:11:04.989Z,96.60
2017-11-11T16:13:33.703Z,96.60
2017-11-11T16:19:01.268Z,96.70
2017-11-11T16:21:31.097Z,96.90
2017-11-11T16:24:00.408Z,97.30
2017-11-11T16:26:28.623Z,97.00
2017-11-11T16:28:57.345Z,97.60
2017-11-11T16:31:26.198Z,97.20
2017-11-11T16:33:53.887Z,97.20
2017-11-11T16:36:21.993Z,97.40
2017-11-11T16:38:49.756Z,97.20
2017-11-11T16:41:18.385Z,97.90
2017-11-11T16:43:46.218Z,97.40
2017-11-11T16:46:14.776Z,97.50
2017-11-11T16:48:43.113Z,97.40
2017-11-11T16:51:11.538Z,97.90
2017-11-11T16:53:39.183Z,97.40
2017-11-11T16:56:06.757Z,97.30
2017-11-11T16:58:34.412Z,97.50
2017-11-11T17:01:02.782Z,97.80
2017-11-11T17:03:31.162Z,97.80
2017-11-11T17:05:58.763Z,97.50
2017-11-11T17:08:26.441Z,97.40
2017-11-11T17:10:54.841Z,98.00
2017-11-11T17:13:22.433Z,97.60
2017-11-11T17:15:50.801Z,98.00
2017-11-11T17:18:19.191Z,98.00
2017-11-11T17:20:46.814Z,97.40
2017-11-11T17:23:14.486Z,97.20
2017-11-11T17:25:42.116Z,97.40
2017-11-11T17:28:10.468Z,97.30
2017-11-11T17:30:38.104Z,97.20
2017-11-11T17:33:05.690Z,97.10
2017-11-11T17:35:33.321Z,97.20
2017-11-11T17:38:01.705Z,97.80
2017-11-11T17:40:29.294Z,97.50
2017-11-11T17:42:56.933Z,97.30
2017-11-11T17:45:24.552Z,97.30
2017-11-11T17:47:52.182Z,97.30
2017-11-11T17:50:19.791Z,97.20
2017-11-11T17:52:47.523Z,97.30
2017-11-11T17:55:15.337Z,97.10
2017-11-11T17:57:42.942Z,97.20
2017-11-11T18:00:10.596Z,97.10
2017-11-11T18:02:38.193Z,97.00
2017-11-11T18:05:05.852Z,96.90
2017-11-11T18:07:33.472Z,97.00
2017-11-11T18:10:01.112Z,96.90
2017-11-11T18:12:29.538Z,97.20
2017-11-11T18:14:57.166Z,96.80
2017-11-11T18:17:24.769Z,96.70
2017-11-11T18:19:52.393Z,96.60
2017-11-11T18:22:20.773Z,96.90
2017-11-11T18:24:48.401Z,96.40
2017-11-11T18:27:16.004Z,96.40
2017-11-11T18:29:43.645Z,96.30
2017-11-11T18:32:11.171Z,96.30
2017-11-11T18:34:38.837Z,96.00
2017-11-11T18:37:06.489Z,96.30
2017-11-11T18:39:34.076Z,96.00
2017-11-11T18:42:02.481Z,96.50
2017-11-11T18:44:30.068Z,95.90
2017-11-11T18:46:57.670Z,95.80
2017-11-11T18:49:25.302Z,95.80
2017-11-11T18:51:52.917Z,95.80
2017-11-11T18:54:21.304Z,96.20
2017-11-11T18:56:48.935Z,95.80
2017-11-11T18:59:16.545Z,95.70
2017-11-11T19:01:44.153Z,95.60
2017-11-11T19:04:11.758Z,95.60
2017-11-11T19:06:39.287Z,95.50
2017-11-11T19:09:06.852Z,95.30
2017-11-11T19:11:34.883Z,95.50
2017-11-11T19:14:02.506Z,95.50
2017-11-11T19:16:30.091Z,95.20
2017-11-11T19:18:57.627Z,95.20
2017-11-11T19:21:25.304Z,95.30
2017-11-11T19:23:53.670Z,95.50
2017-11-11T19:26:21.285Z,95.20
2017-11-11T19:28:48.943Z,95.30
2017-11-11T19:31:22.740Z,95.20
2017-11-11T19:33:51.128Z,95.40
2017-11-11T19:36:18.710Z,94.80
2017-11-11T19:38:46.342Z,94.90
2017-11-11T19:41:13.938Z,94.40
2017-11-11T19:43:41.552Z,94.50
2017-11-11T19:46:09.163Z,94.20
2017-11-11T19:48:36.885Z,93.80
2017-11-11T19:51:04.514Z,93.70
2017-11-11T19:53:32.087Z,93.50
2017-11-11T19:56:00.504Z,94.20
2017-11-11T19:58:28.127Z,93.60
2017-11-11T20:00:55.760Z,93.60
2017-11-11T20:03:23.367Z,93.60
2017-11-11T20:05:50.992Z,93.80
2017-11-11T20:08:18.617Z,93.70
2017-11-11T20:10:46.248Z,93.70
2017-11-11T20:13:13.881Z,93.60
2017-11-11T20:15:41.504Z,93.70
2017-11-11T20:18:09.101Z,93.40
2017-11-11T20:20:36.708Z,93.50
2017-11-11T20:23:04.325Z,93.50
2017-11-11T20:25:32.014Z,93.50
2017-11-11T20:28:00.373Z,93.80
2017-11-11T20:30:27.996Z,93.20
2017-11-11T20:32:55.603Z,93.10
2017-11-11T20:35:23.210Z,93.00
2017-11-11T20:37:51.600Z,93.70
2017-11-11T20:40:19.209Z,93.20
2017-11-11T20:42:46.815Z,93.10
2017-11-11T20:45:14.413Z,93.10
2017-11-11T20:47:42.084Z,93.10
2017-11-11T20:50:10.787Z,93.00
2017-11-11T20:52:38.482Z,93.00
2017-11-11T20:55:09.717Z,93.00
2017-11-11T20:57:38.390Z,92.90
2017-11-11T21:00:06.034Z,92.90
2017-11-11T21:02:34.430Z,92.90
2017-11-11T21:05:02.059Z,92.90
2017-11-11T21:07:29.696Z,92.90
2017-11-11T21:09:57.488Z,93.00
2017-11-11T21:12:25.248Z,92.90
2017-11-11T21:14:53.658Z,93.20
2017-11-11T21:17:21.281Z,93.00
2017-11-11T21:19:48.918Z,93.00
2017-11-11T21:22:16.552Z,92.90
2017-11-11T21:24:44.312Z,92.80
2017-11-11T21:27:11.920Z,93.00
2017-11-11T21:29:39.609Z,93.00
2017-11-11T21:32:07.293Z,93.00
2017-11-11T21:34:35.665Z,93.00
2017-11-11T21:37:03.350Z,93.10
2017-11-11T21:39:31.056Z,93.00
2017-11-11T21:41:58.742Z,93.00
2017-11-11T21:44:27.731Z,92.70
2017-11-11T21:46:56.434Z,92.40
2017-11-11T21:49:24.094Z,92.40
2017-11-11T21:51:53.129Z,92.60
2017-11-11T21:54:20.798Z,92.60
2017-11-11T21:59:49.759Z,92.60
2017-11-11T22:02:17.470Z,92.50
2017-11-11T22:04:45.441Z,92.40
2017-11-11T22:07:13.140Z,92.50
2017-11-11T22:09:41.101Z,92.50
2017-11-11T22:12:08.796Z,92.40
2017-11-11T22:14:36.408Z,92.20
2017-11-11T22:17:04.040Z,92.30
2017-11-11T22:19:31.767Z,92.40
2017-11-11T22:21:59.386Z,92.40
2017-11-11T22:24:27.515Z,92.50
2017-11-11T22:26:55.207Z,92.30
2017-11-11T22:29:23.192Z,92.20
2017-11-11T22:31:51.013Z,92.30
2017-11-11T22:34:18.692Z,92.30
2017-11-11T22:36:46.306Z,92.50
2017-11-11T22:39:14.336Z,92.50
2017-11-11T22:41:41.958Z,92.30
2017-11-11T22:44:09.586Z,92.60
2017-11-11T22:46:38.000Z,92.70
2017-11-11T22:49:05.635Z,92.50
2017-11-11T22:51:33.302Z,92.30
2017-11-11T22:54:00.929Z,92.80
2017-11-11T22:56:28.544Z,92.50
2017-11-11T22:58:56.246Z,92.60
2017-11-11T23:01:23.842Z,92.60
2017-11-11T23:03:51.469Z,92.50
2017-11-11T23:06:19.841Z,92.90
2017-11-11T23:08:48.223Z,92.80
2017-11-11T23:11:15.859Z,92.60
2017-11-11T23:13:44.233Z,92.30
2017-11-11T23:16:11.888Z,92.30
2017-11-11T23:18:39.511Z,92.30
2017-11-11T23:21:07.911Z,92.90
2017-11-11T23:23:35.647Z,92.40
2017-11-11T23:26:03.295Z,92.50
2017-11-11T23:28:30.901Z,92.30
2017-11-11T23:30:59.288Z,92.50
2017-11-11T23:33:26.958Z,92.50
2017-11-11T23:35:54.599Z,92.50
2017-11-11T23:38:22.203Z,92.40
2017-11-11T23:40:50.614Z,93.30
2017-11-11T23:43:18.218Z,92.40
2017-11-11T23:45:45.848Z,92.50
2017-11-11T23:48:13.444Z,92.50
2017-11-11T23:50:41.077Z,92.50
2017-11-11T23:53:09.441Z,92.80
2017-11-11T23:55:37.077Z,92.40
2017-11-11T23:58:04.668Z,92.40
